Time;durP1;ratioP1;P1;durP2;ratioP2;P2;SDS_P1;SDS_P2;PMS_P1;PMS_P2;Temp;Humidity;BMP_temperature;BMP_pressure;BME280_temperature;BME280_humidity;BME280_pressure;Samples;Min_cycle;Max_cycle;Signal;HPM_P1;HPM_P2
2022/07/28 00:00:32;;;;;;;6.30;2.13;;;;;;;;;;5279388;28;20032;-85
2022/07/28 00:03:04;;;;;;;2.35;1.40;;;;;;;;;;5275519;28;20032;-84
2022/07/28 00:05:35;;;;;;;4.07;1.48;;;;;;;;;;5277044;28;20037;-84
2022/07/28 00:08:06;;;;;;;3.27;1.30;;;;;;;;;;5256707;28;20116;-85
2022/07/28 00:10:37;;;;;;;3.97;2.22;;;;;;;;;;5271624;28;20260;-85
2022/07/28 00:13:09;;;;;;;5.35;1.60;;;;;;;;;;5282350;28;20025;-85
2022/07/28 00:15:40;;;;;;;4.03;1.23;;;;;;;;;;5268208;28;20146;-84
2022/07/28 00:18:11;;;;;;;5.03;1.70;;;;;;;;;;5257057;28;20284;-84
2022/07/28 00:20:42;;;;;;;7.28;1.70;;;;;;;;;;5276974;28;20050;-85
2022/07/28 00:23:14;;;;;;;3.50;1.77;;;;;;;;;;5285495;28;20024;-84
2022/07/28 00:25:45;;;;;;;4.07;1.50;;;;;;;;;;5301657;28;20043;-84
2022/07/28 00:28:16;;;;;;;5.60;1.80;;;;;;;;;;5284288;28;20287;-85
2022/07/28 00:30:47;;;;;;;6.70;1.93;;;;;;;;;;5298738;28;20259;-84
2022/07/28 00:33:18;;;;;;;6.18;1.90;;;;;;;;;;5301568;28;20264;-84
2022/07/28 00:35:50;;;;;;;4.57;1.88;;;;;;;;;;5287299;28;20035;-85
2022/07/28 00:38:21;;;;;;;3.53;1.20;;;;;;;;;;5276943;28;20460;-84
2022/07/28 00:41:10;;;;;;;7.10;1.98;;;;;;;;;;5287553;28;20325;-84
2022/07/28 00:43:43;;;;;;;6.13;1.70;;;;;;;;;;5272965;28;20114;-84
2022/07/28 00:46:15;;;;;;;3.50;1.40;;;;;;;;;;5284041;28;20043;-84
2022/07/28 00:48:47;;;;;;;6.07;1.50;;;;;;;;;;5285488;28;20473;-84
2022/07/28 00:51:19;;;;;;;5.90;1.88;;;;;;;;;;5262878;28;20028;-84
2022/07/28 00:53:51;;;;;;;6.47;1.70;;;;;;;;;;5257464;28;20034;-84
2022/07/28 00:56:23;;;;;;;3.72;1.70;;;;;;;;;;5259029;28;20040;-84
2022/07/28 00:58:54;;;;;;;4.97;1.90;;;;;;;;;;5281264;28;20029;-84
2022/07/28 01:01:25;;;;;;;5.30;1.40;;;;;;;;;;5256608;28;20068;-84
2022/07/28 01:03:58;;;;;;;6.13;1.80;;;;;;;;;;5258494;28;20250;-84
2022/07/28 01:06:29;;;;;;;11.32;2.13;;;;;;;;;;5258395;28;20032;-85
2022/07/28 01:09:04;;;;;;;3.90;1.70;;;;;;;;;;5276770;28;20541;-84
2022/07/28 01:11:44;;;;;;;10.57;1.85;;;;;;;;;;5259390;28;20027;-84
2022/07/28 01:14:31;;;;;;;5.45;1.90;;;;;;;;;;5263434;28;20069;-84
2022/07/28 01:17:05;;;;;;;5.55;1.55;;;;;;;;;;5260029;28;20032;-84
2022/07/28 01:19:47;;;;;;;3.95;1.65;;;;;;;;;;5259146;28;20129;-85
2022/07/28 01:22:20;;;;;;;4.00;1.60;;;;;;;;;;5277456;28;20583;-84
2022/07/28 01:25:01;;;;;;;5.88;1.63;;;;;;;;;;5259961;28;20028;-85
2022/07/28 01:27:47;;;;;;;4.78;1.75;;;;;;;;;;5278477;28;20036;-84
2022/07/28 01:30:39;;;;;;;3.78;2.20;;;;;;;;;;5276982;28;20038;-84
2022/07/28 01:33:14;;;;;;;4.22;2.00;;;;;;;;;;5267852;28;20129;-83
2022/07/28 01:35:57;;;;;;;4.15;1.83;;;;;;;;;;5275912;28;20029;-84
2022/07/28 01:38:31;;;;;;;6.13;1.75;;;;;;;;;;5272063;28;20036;-84
2022/07/28 01:41:03;;;;;;;4.10;2.08;;;;;;;;;;5262092;28;20067;-84
2022/07/28 01:43:36;;;;;;;4.93;2.40;;;;;;;;;;5276602;28;20025;-84
2022/07/28 01:46:08;;;;;;;5.40;1.90;;;;;;;;;;5261574;28;20025;-84
2022/07/28 01:48:41;;;;;;;6.22;2.40;;;;;;;;;;5271263;28;20028;-84
2022/07/28 01:51:13;;;;;;;10.75;2.78;;;;;;;;;;5258095;28;20041;-84
2022/07/28 01:53:48;;;;;;;4.63;1.90;;;;;;;;;;5281820;28;20025;-84
2022/07/28 01:56:20;;;;;;;4.63;2.10;;;;;;;;;;5263321;28;20045;-84
2022/07/28 01:58:54;;;;;;;5.40;2.10;;;;;;;;;;5278437;28;20017;-84
2022/07/28 02:01:26;;;;;;;4.55;2.10;;;;;;;;;;5276066;28;20530;-85
2022/07/28 02:03:59;;;;;;;13.73;3.20;;;;;;;;;;5265766;28;20033;-85
2022/07/28 02:06:31;;;;;;;5.60;2.35;;;;;;;;;;5284996;28;20024;-84
2022/07/28 02:09:03;;;;;;;10.32;2.20;;;;;;;;;;5279566;28;20446;-84
2022/07/28 02:11:41;;;;;;;5.30;3.13;;;;;;;;;;5262796;28;20041;-84
2022/07/28 02:14:13;;;;;;;4.57;2.28;;;;;;;;;;5279405;28;20087;-84
2022/07/28 02:16:47;;;;;;;6.70;2.63;;;;;;;;;;5282899;28;20033;-84
2022/07/28 02:19:19;;;;;;;6.72;2.20;;;;;;;;;;5284414;28;20024;-85
2022/07/28 02:21:52;;;;;;;9.43;3.30;;;;;;;;;;5262808;28;20084;-84
2022/07/28 02:24:26;;;;;;;4.57;2.15;;;;;;;;;;5280983;28;20358;-84
2022/07/28 02:26:59;;;;;;;4.18;2.47;;;;;;;;;;5282662;28;20037;-84
2022/07/28 02:29:32;;;;;;;5.95;2.30;;;;;;;;;;5266122;28;20386;-85
2022/07/28 02:32:06;;;;;;;5.85;2.20;;;;;;;;;;5264449;28;20038;-85
2022/07/28 02:34:38;;;;;;;4.95;2.50;;;;;;;;;;5282201;28;20147;-85
2022/07/28 02:37:10;;;;;;;7.75;2.40;;;;;;;;;;5262048;28;20029;-84
2022/07/28 02:39:49;;;;;;;5.25;2.22;;;;;;;;;;5280819;28;20092;-85
2022/07/28 02:42:25;;;;;;;5.22;2.60;;;;;;;;;;5280948;28;20063;-84
2022/07/28 02:45:00;;;;;;;5.40;2.63;;;;;;;;;;5280117;28;20060;-85
2022/07/28 02:47:35;;;;;;;4.35;2.60;;;;;;;;;;5280246;28;20036;-84
2022/07/28 02:50:07;;;;;;;4.90;2.60;;;;;;;;;;5278931;28;20158;-85
2022/07/28 02:52:40;;;;;;;5.95;2.58;;;;;;;;;;5266071;28;20025;-84
2022/07/28 02:55:13;;;;;;;4.18;2.53;;;;;;;;;;5281992;28;20493;-84
2022/07/28 02:57:44;;;;;;;8.07;2.78;;;;;;;;;;5261438;28;20400;-84
2022/07/28 03:00:16;;;;;;;4.07;2.17;;;;;;;;;;5280118;28;20033;-84
2022/07/28 03:02:50;;;;;;;8.30;2.80;;;;;;;;;;5280670;28;20456;-84
2022/07/28 03:05:21;;;;;;;5.63;2.85;;;;;;;;;;5265747;28;20134;-84
2022/07/28 03:07:53;;;;;;;8.60;2.95;;;;;;;;;;5281605;28;20112;-85
2022/07/28 03:10:27;;;;;;;3.63;2.10;;;;;;;;;;5267885;28;20090;-85
2022/07/28 03:12:59;;;;;;;6.47;2.38;;;;;;;;;;5267040;28;20193;-85
2022/07/28 03:15:30;;;;;;;5.07;2.30;;;;;;;;;;5281676;28;20419;-85
2022/07/28 03:18:03;;;;;;;5.72;2.78;;;;;;;;;;5284430;28;20067;-85
2022/07/28 03:20:34;;;;;;;5.07;2.60;;;;;;;;;;5269913;28;20221;-85
2022/07/28 03:23:06;;;;;;;7.70;2.40;;;;;;;;;;5267167;28;20124;-84
2022/07/28 03:25:42;;;;;;;5.70;2.55;;;;;;;;;;5282181;28;20025;-85
2022/07/28 03:28:18;;;;;;;5.03;2.42;;;;;;;;;;5284951;28;20521;-85
2022/07/28 03:30:53;;;;;;;2.85;2.10;;;;;;;;;;5279509;28;20563;-85
2022/07/28 03:33:33;;;;;;;5.88;2.20;;;;;;;;;;5266410;28;20107;-85
2022/07/28 03:36:09;;;;;;;5.32;2.65;;;;;;;;;;5284028;28;20025;-85
2022/07/28 03:38:43;;;;;;;7.45;2.42;;;;;;;;;;5280822;28;20481;-83
2022/07/28 03:41:15;;;;;;;3.85;2.25;;;;;;;;;;5281833;28;20032;-83
2022/07/28 03:43:47;;;;;;;8.05;3.03;;;;;;;;;;5285185;28;20037;-83
2022/07/28 03:46:20;;;;;;;9.20;2.80;;;;;;;;;;5282864;28;20032;-83
2022/07/28 03:48:51;;;;;;;6.10;2.20;;;;;;;;;;5283428;28;20028;-83
2022/07/28 03:51:24;;;;;;;4.60;2.70;;;;;;;;;;5283020;28;20025;-83
2022/07/28 03:53:55;;;;;;;5.88;2.60;;;;;;;;;;5284242;28;20033;-83
2022/07/28 03:56:26;;;;;;;8.32;2.67;;;;;;;;;;5287621;28;20063;-84
2022/07/28 03:58:58;;;;;;;5.07;2.58;;;;;;;;;;5285848;28;20020;-83
2022/07/28 04:01:29;;;;;;;6.90;2.35;;;;;;;;;;5299008;28;20634;-83
2022/07/28 04:04:00;;;;;;;5.13;2.65;;;;;;;;;;5277413;28;20531;-82
2022/07/28 04:07:07;;;;;;;;;;;;;;;;;;;;;
2022/07/28 04:13:31;;;;;;;;;;;;;;;;;;;;;
2022/07/28 04:20:03;;;;;;;;;;;;;;;;;;;;;
2022/07/28 04:26:17;;;;;;;5.60;2.50;;;;;;;;;;5247807;28;20100;-87
2022/07/28 04:29:30;;;;;;;;;;;;;;;;;;;;;
2022/07/28 04:32:30;;;;;;;7.85;2.47;;;;;;;;;;5257223;28;41337;-88
2022/07/28 04:38:19;;;;;;;8.10;3.05;;;;;;;;;;5252508;28;20049;-86
2022/07/28 04:40:52;;;;;;;6.43;2.67;;;;;;;;;;5257253;28;20530;-82
2022/07/28 04:43:23;;;;;;;6.05;2.50;;;;;;;;;;5259409;28;20310;-82
2022/07/28 04:45:58;;;;;;;5.57;2.55;;;;;;;;;;5241704;28;20033;-82
2022/07/28 04:48:29;;;;;;;5.78;2.45;;;;;;;;;;5261415;28;20116;-82
2022/07/28 04:51:00;;;;;;;7.83;2.80;;;;;;;;;;5258543;28;20033;-82
2022/07/28 04:53:31;;;;;;;8.93;2.80;;;;;;;;;;5246728;28;20283;-82
2022/07/28 04:56:03;;;;;;;7.63;2.70;;;;;;;;;;5244960;28;20276;-82
2022/07/28 04:58:34;;;;;;;6.82;2.65;;;;;;;;;;5260444;28;20092;-82
2022/07/28 05:01:05;;;;;;;4.45;2.60;;;;;;;;;;5256632;28;20030;-82
2022/07/28 05:03:36;;;;;;;4.40;2.77;;;;;;;;;;5254818;28;20044;-82
2022/07/28 05:06:08;;;;;;;5.10;2.90;;;;;;;;;;5241268;28;20308;-82
2022/07/28 05:08:39;;;;;;;4.55;3.08;;;;;;;;;;5242480;28;20508;-82
2022/07/28 05:11:10;;;;;;;8.53;2.70;;;;;;;;;;5244871;28;20336;-82
2022/07/28 05:13:41;;;;;;;8.13;3.50;;;;;;;;;;5242805;28;20371;-82
2022/07/28 05:16:13;;;;;;;5.18;3.13;;;;;;;;;;5264395;28;20304;-82
2022/07/28 05:18:44;;;;;;;3.90;2.63;;;;;;;;;;5256445;28;20398;-82
2022/07/28 05:21:15;;;;;;;5.18;2.90;;;;;;;;;;5247767;28;20288;-82
2022/07/28 05:23:46;;;;;;;6.43;2.80;;;;;;;;;;5245426;28;20028;-83
2022/07/28 05:26:20;;;;;;;6.00;2.83;;;;;;;;;;5261505;28;20032;-82
2022/07/28 05:28:51;;;;;;;4.28;2.65;;;;;;;;;;5254910;28;20280;-82
2022/07/28 05:31:22;;;;;;;10.32;2.85;;;;;;;;;;5266005;28;20086;-82
2022/07/28 05:33:53;;;;;;;8.13;4.23;;;;;;;;;;5272924;28;20040;-82
2022/07/28 05:36:25;;;;;;;5.23;2.83;;;;;;;;;;5284918;28;20287;-82
2022/07/28 05:38:56;;;;;;;7.88;2.53;;;;;;;;;;5269652;28;20340;-83
2022/07/28 05:41:28;;;;;;;7.63;2.95;;;;;;;;;;5273009;28;20030;-84
2022/07/28 05:44:00;;;;;;;9.32;2.80;;;;;;;;;;5284637;28;20079;-83
2022/07/28 05:46:31;;;;;;;5.85;2.72;;;;;;;;;;5276451;28;20393;-83
2022/07/28 05:49:02;;;;;;;8.70;2.72;;;;;;;;;;5271488;28;20455;-83
2022/07/28 05:51:34;;;;;;;7.93;2.90;;;;;;;;;;5289483;28;20044;-83
2022/07/28 05:54:05;;;;;;;4.43;2.37;;;;;;;;;;5268491;28;20033;-83
2022/07/28 05:56:36;;;;;;;7.40;2.92;;;;;;;;;;5280201;28;20267;-84
2022/07/28 05:59:09;;;;;;;8.18;2.30;;;;;;;;;;5285204;28;20051;-83
2022/07/28 06:01:40;;;;;;;7.72;2.15;;;;;;;;;;5272015;28;20028;-83
2022/07/28 06:04:11;;;;;;;6.97;2.20;;;;;;;;;;5308739;28;20032;-83
2022/07/28 06:06:42;;;;;;;4.93;2.00;;;;;;;;;;5290929;28;20313;-83
2022/07/28 06:09:13;;;;;;;5.07;2.30;;;;;;;;;;5282225;28;20052;-84
2022/07/28 06:11:45;;;;;;;7.27;2.33;;;;;;;;;;5298522;28;20279;-83
2022/07/28 06:14:16;;;;;;;4.88;1.80;;;;;;;;;;5303138;28;20256;-83
2022/07/28 06:16:49;;;;;;;5.28;2.30;;;;;;;;;;5283433;28;20029;-83
2022/07/28 06:19:20;;;;;;;10.23;2.30;;;;;;;;;;5269964;28;20036;-83
2022/07/28 06:21:52;;;;;;;8.00;2.37;;;;;;;;;;5275313;28;20029;-83
2022/07/28 06:24:23;;;;;;;6.17;2.20;;;;;;;;;;5277124;28;20754;-83
2022/07/28 06:26:54;;;;;;;8.30;2.00;;;;;;;;;;5281653;28;20297;-83
2022/07/28 06:29:25;;;;;;;6.63;2.10;;;;;;;;;;5301945;28;20040;-83
2022/07/28 06:31:57;;;;;;;5.37;2.50;;;;;;;;;;5302338;28;20477;-84
2022/07/28 06:34:28;;;;;;;6.00;2.30;;;;;;;;;;5287786;28;20384;-83
2022/07/28 06:36:59;;;;;;;5.82;1.80;;;;;;;;;;5286123;28;20465;-83
2022/07/28 06:39:30;;;;;;;8.75;2.28;;;;;;;;;;5292332;28;20033;-83
2022/07/28 06:42:01;;;;;;;8.73;2.07;;;;;;;;;;5290715;28;20029;-82
2022/07/28 06:44:33;;;;;;;6.55;2.20;;;;;;;;;;5272997;28;20033;-82
2022/07/28 06:47:04;;;;;;;9.50;2.23;;;;;;;;;;5295419;28;20037;-81
2022/07/28 06:49:35;;;;;;;5.70;2.10;;;;;;;;;;5282335;28;20776;-82
2022/07/28 06:52:06;;;;;;;9.45;2.20;;;;;;;;;;5263127;28;20098;-82
2022/07/28 06:54:38;;;;;;;5.28;1.92;;;;;;;;;;5259733;28;20036;-81
2022/07/28 06:57:09;;;;;;;4.97;2.03;;;;;;;;;;5259509;28;20117;-82
2022/07/28 06:59:40;;;;;;;4.57;2.05;;;;;;;;;;5264069;28;20090;-82
2022/07/28 07:02:12;;;;;;;3.20;1.63;;;;;;;;;;5261884;28;20017;-81
2022/07/28 07:04:44;;;;;;;5.80;1.80;;;;;;;;;;5279364;28;20905;-82
2022/07/28 07:07:15;;;;;;;5.70;1.90;;;;;;;;;;5263191;28;20153;-82
2022/07/28 07:09:46;;;;;;;3.97;1.43;;;;;;;;;;5262848;28;20033;-82
2022/07/28 07:12:17;;;;;;;4.83;1.70;;;;;;;;;;5279043;28;20055;-81
2022/07/28 07:14:48;;;;;;;6.63;1.63;;;;;;;;;;5279065;28;20275;-82
2022/07/28 07:17:19;;;;;;;8.57;1.60;;;;;;;;;;5280548;28;20424;-81
2022/07/28 07:19:51;;;;;;;4.60;1.80;;;;;;;;;;5287731;28;20267;-81
2022/07/28 07:22:22;;;;;;;6.78;1.85;;;;;;;;;;5305801;28;20037;-81
2022/07/28 07:24:53;;;;;;;3.13;1.42;;;;;;;;;;5289411;28;20036;-81
2022/07/28 07:27:24;;;;;;;2.67;1.40;;;;;;;;;;5279050;28;20531;-80
2022/07/28 07:29:56;;;;;;;3.83;1.60;;;;;;;;;;5258652;28;20883;-80
2022/07/28 07:32:27;;;;;;;5.10;1.70;;;;;;;;;;5258788;28;20021;-80
2022/07/28 07:34:58;;;;;;;5.43;1.73;;;;;;;;;;5261113;28;20268;-79
2022/07/28 07:37:31;;;;;;;5.33;1.27;;;;;;;;;;5262433;28;20024;-79
2022/07/28 07:40:03;;;;;;;2.95;1.48;;;;;;;;;;5261239;28;20411;-79
2022/07/28 07:42:34;;;;;;;6.43;1.45;;;;;;;;;;5278211;28;20056;-80
2022/07/28 07:45:06;;;;;;;5.43;1.40;;;;;;;;;;5262233;28;20025;-80
2022/07/28 07:47:37;;;;;;;3.60;1.40;;;;;;;;;;5278935;28;20032;-80
2022/07/28 07:50:08;;;;;;;8.03;2.00;;;;;;;;;;5280248;28;20047;-80
2022/07/28 07:52:39;;;;;;;4.63;1.73;;;;;;;;;;5280126;28;20394;-80
2022/07/28 07:55:11;;;;;;;6.07;1.63;;;;;;;;;;5279456;28;20562;-80
2022/07/28 07:57:43;;;;;;;3.35;1.38;;;;;;;;;;5280254;28;20285;-80
2022/07/28 08:00:14;;;;;;;7.22;1.65;;;;;;;;;;5277484;28;20044;-80
2022/07/28 08:02:46;;;;;;;6.03;1.70;;;;;;;;;;5280007;28;20477;-80
2022/07/28 08:05:17;;;;;;;5.55;1.48;;;;;;;;;;5277849;28;20115;-80
2022/07/28 08:07:48;;;;;;;4.78;1.45;;;;;;;;;;5277433;28;20338;-81
2022/07/28 08:10:19;;;;;;;4.73;1.73;;;;;;;;;;5279254;28;20388;-81
2022/07/28 08:12:50;;;;;;;3.50;1.40;;;;;;;;;;5262134;28;20052;-81
2022/07/28 08:15:22;;;;;;;7.17;1.47;;;;;;;;;;5279069;28;20033;-81
2022/07/28 08:17:53;;;;;;;4.50;1.33;;;;;;;;;;5277850;28;20025;-80
2022/07/28 08:20:24;;;;;;;3.13;1.30;;;;;;;;;;5277694;28;20033;-81
2022/07/28 08:22:56;;;;;;;3.90;1.20;;;;;;;;;;5275883;28;20443;-81
2022/07/28 08:25:27;;;;;;;6.47;1.27;;;;;;;;;;5275036;28;20053;-81
2022/07/28 08:27:58;;;;;;;2.93;1.23;;;;;;;;;;5278278;28;20465;-81
2022/07/28 08:30:29;;;;;;;4.43;1.40;;;;;;;;;;5279449;28;20284;-81
2022/07/28 08:33:01;;;;;;;4.20;1.40;;;;;;;;;;5260714;28;20521;-81
2022/07/28 08:35:34;;;;;;;4.78;1.63;;;;;;;;;;5261887;28;20036;-81
2022/07/28 08:38:05;;;;;;;5.20;1.20;;;;;;;;;;5277964;28;20032;-82
2022/07/28 08:40:37;;;;;;;5.05;1.70;;;;;;;;;;5279120;28;20025;-81
2022/07/28 08:43:17;;;;;;;4.10;1.10;;;;;;;;;;5279838;28;20044;-81
2022/07/28 08:45:50;;;;;;;4.57;1.30;;;;;;;;;;5279745;28;20040;-81
2022/07/28 08:48:22;;;;;;;8.30;1.40;;;;;;;;;;5278311;28;20067;-81
2022/07/28 08:50:54;;;;;;;3.17;1.30;;;;;;;;;;5258034;28;20824;-81
2022/07/28 08:53:27;;;;;;;2.78;1.25;;;;;;;;;;5277571;28;20405;-81
2022/07/28 08:56:00;;;;;;;6.20;1.42;;;;;;;;;;5277086;28;20428;-81
2022/07/28 08:58:31;;;;;;;5.43;1.00;;;;;;;;;;5278960;28;20021;-81
2022/07/28 09:01:04;;;;;;;6.07;1.48;;;;;;;;;;5277813;28;20040;-80
2022/07/28 09:03:36;;;;;;;5.22;1.27;;;;;;;;;;5264489;28;20039;-81
2022/07/28 09:06:07;;;;;;;3.40;1.13;;;;;;;;;;5279206;28;20037;-81
2022/07/28 09:08:38;;;;;;;5.28;1.23;;;;;;;;;;5275950;28;20400;-80
2022/07/28 09:11:09;;;;;;;5.83;1.50;;;;;;;;;;5277677;28;20095;-81
2022/07/28 09:13:41;;;;;;;5.57;1.23;;;;;;;;;;5277567;28;20412;-80
2022/07/28 09:16:13;;;;;;;3.53;1.20;;;;;;;;;;5278990;28;20037;-80
2022/07/28 09:18:45;;;;;;;4.25;1.10;;;;;;;;;;5276526;28;20036;-80
2022/07/28 09:21:16;;;;;;;8.07;1.70;;;;;;;;;;5277661;28;20029;-80
2022/07/28 09:23:48;;;;;;;6.78;1.45;;;;;;;;;;5275792;28;20044;-80
2022/07/28 09:26:19;;;;;;;2.95;1.40;;;;;;;;;;5278145;28;20095;-80
2022/07/28 09:28:51;;;;;;;2.73;1.20;;;;;;;;;;5275855;28;20029;-81
2022/07/28 09:31:24;;;;;;;5.63;1.70;;;;;;;;;;5279181;28;20082;-80
2022/07/28 09:34:01;;;;;;;5.57;1.30;;;;;;;;;;5278425;28;20025;-81
2022/07/28 09:36:39;;;;;;;4.90;1.38;;;;;;;;;;5278217;28;20037;-80
2022/07/28 09:39:10;;;;;;;7.38;1.48;;;;;;;;;;5257028;28;20056;-81
2022/07/28 09:41:46;;;;;;;3.53;1.20;;;;;;;;;;5278606;28;20021;-80
2022/07/28 09:44:18;;;;;;;4.60;1.35;;;;;;;;;;5280816;28;20029;-80
2022/07/28 09:46:49;;;;;;;3.72;1.20;;;;;;;;;;5288298;28;20440;-79
2022/07/28 09:49:21;;;;;;;4.30;1.02;;;;;;;;;;5304342;28;20113;-82
2022/07/28 09:51:59;;;;;;;5.07;1.15;;;;;;;;;;5303930;28;20017;-81
2022/07/28 09:54:30;;;;;;;4.40;1.77;;;;;;;;;;5299392;28;20093;-80
2022/07/28 09:57:02;;;;;;;6.30;1.10;;;;;;;;;;5277967;28;20111;-80
2022/07/28 09:59:42;;;;;;;5.03;1.33;;;;;;;;;;5279212;28;20040;-80
2022/07/28 10:02:21;;;;;;;4.95;1.23;;;;;;;;;;5279411;28;20284;-81
2022/07/28 10:04:52;;;;;;;5.30;1.33;;;;;;;;;;5262112;28;20033;-81
2022/07/28 10:07:23;;;;;;;4.45;1.13;;;;;;;;;;5276408;28;20412;-81
2022/07/28 10:09:56;;;;;;;4.17;1.00;;;;;;;;;;5274451;28;20046;-80
2022/07/28 10:12:31;;;;;;;2.90;0.93;;;;;;;;;;5276941;28;20079;-81
2022/07/28 10:18:07;;;;;;;4.63;1.27;;;;;;;;;;5255408;28;20117;-80
2022/07/28 10:20:38;;;;;;;4.65;1.30;;;;;;;;;;5277009;28;20113;-80
2022/07/28 10:23:12;;;;;;;7.13;1.50;;;;;;;;;;5260899;28;20056;-80
2022/07/28 10:25:44;;;;;;;4.07;1.15;;;;;;;;;;5280049;28;20775;-80
2022/07/28 10:28:19;;;;;;;5.00;0.90;;;;;;;;;;5280663;28;20136;-80
2022/07/28 10:30:53;;;;;;;3.10;1.23;;;;;;;;;;5263062;28;20044;-80
2022/07/28 10:33:25;;;;;;;4.10;1.38;;;;;;;;;;5280819;28;20095;-80
2022/07/28 10:35:58;;;;;;;6.60;1.00;;;;;;;;;;5281189;28;20057;-81
2022/07/28 10:38:33;;;;;;;2.92;0.95;;;;;;;;;;5280683;28;20183;-80
2022/07/28 10:41:05;;;;;;;4.75;0.90;;;;;;;;;;5265273;28;20060;-80
2022/07/28 10:43:37;;;;;;;3.15;1.00;;;;;;;;;;5283726;28;20028;-81
2022/07/28 10:46:08;;;;;;;4.22;0.80;;;;;;;;;;5275630;28;20459;-80
2022/07/28 10:48:39;;;;;;;4.73;1.00;;;;;;;;;;5287711;28;20112;-80
2022/07/28 10:51:11;;;;;;;3.33;1.03;;;;;;;;;;5280526;28;20115;-80
2022/07/28 10:53:46;;;;;;;2.97;0.90;;;;;;;;;;5279072;28;20048;-81
2022/07/28 10:56:33;;;;;;;7.57;1.33;;;;;;;;;;5281035;28;20065;-80
2022/07/28 10:59:04;;;;;;;4.57;1.02;;;;;;;;;;5263099;28;20025;-80
2022/07/28 11:01:37;;;;;;;3.75;1.10;;;;;;;;;;5283845;28;20033;-81
2022/07/28 11:04:10;;;;;;;3.13;1.00;;;;;;;;;;5283649;28;20025;-81
2022/07/28 11:06:44;;;;;;;1.85;0.80;;;;;;;;;;5279905;28;20025;-80
2022/07/28 11:09:15;;;;;;;3.60;1.10;;;;;;;;;;5263822;28;20488;-81
2022/07/28 11:11:51;;;;;;;3.30;1.10;;;;;;;;;;5283868;28;20040;-81
2022/07/28 11:14:25;;;;;;;6.75;1.52;;;;;;;;;;5282651;28;20036;-81
2022/07/28 11:17:02;;;;;;;3.67;0.93;;;;;;;;;;5283042;28;20454;-80
2022/07/28 11:19:42;;;;;;;2.63;0.80;;;;;;;;;;5281042;28;20025;-80
2022/07/28 11:25:00;;;;;;;2.35;0.82;;;;;;;;;;5275968;28;20060;-80
2022/07/28 11:27:49;;;;;;;6.68;1.08;;;;;;;;;;5277005;28;20408;-81
2022/07/28 11:30:35;;;;;;;3.88;1.20;;;;;;;;;;5279908;28;20476;-81
2022/07/28 11:33:09;;;;;;;2.15;0.75;;;;;;;;;;5264838;28;20021;-81
2022/07/28 11:35:41;;;;;;;3.27;0.90;;;;;;;;;;5277135;28;20040;-80
2022/07/28 11:38:13;;;;;;;10.53;1.70;;;;;;;;;;5279606;28;20021;-80
2022/07/28 11:40:45;;;;;;;2.80;0.98;;;;;;;;;;5278697;28;20029;-81
2022/07/28 11:43:19;;;;;;;3.70;0.90;;;;;;;;;;5278868;28;20565;-81
2022/07/28 11:45:59;;;;;;;6.07;1.30;;;;;;;;;;5280037;28;20025;-81
2022/07/28 11:48:31;;;;;;;2.83;0.85;;;;;;;;;;5277668;28;20029;-81
2022/07/28 11:51:02;;;;;;;4.53;0.90;;;;;;;;;;5264428;28;20043;-81
2022/07/28 11:53:34;;;;;;;3.17;1.10;;;;;;;;;;5274632;28;20029;-81
2022/07/28 11:56:06;;;;;;;3.42;1.30;;;;;;;;;;5274893;28;20060;-81
2022/07/28 11:58:37;;;;;;;3.47;0.90;;;;;;;;;;5269975;28;20021;-80
2022/07/28 12:01:15;;;;;;;3.15;1.05;;;;;;;;;;5295455;28;20039;-81
2022/07/28 12:03:47;;;;;;;3.40;1.30;;;;;;;;;;5283190;28;20033;-80
2022/07/28 12:06:19;;;;;;;4.90;1.00;;;;;;;;;;5269342;28;20062;-80
2022/07/28 12:08:57;;;;;;;3.45;1.17;;;;;;;;;;5293912;28;20367;-80
2022/07/28 12:11:32;;;;;;;4.20;1.10;;;;;;;;;;5276958;28;20055;-81
2022/07/28 12:14:05;;;;;;;4.68;0.75;;;;;;;;;;5266779;28;20047;-81
2022/07/28 12:16:37;;;;;;;3.65;0.90;;;;;;;;;;5269605;28;20465;-81
2022/07/28 12:19:09;;;;;;;7.28;1.05;;;;;;;;;;5291010;28;20044;-80
2022/07/28 12:21:45;;;;;;;3.65;0.85;;;;;;;;;;5301974;28;20024;-80
2022/07/28 12:24:16;;;;;;;3.90;1.02;;;;;;;;;;5287841;28;20041;-81
2022/07/28 12:26:47;;;;;;;4.50;1.30;;;;;;;;;;5289580;28;20042;-81
2022/07/28 12:29:18;;;;;;;4.63;0.80;;;;;;;;;;5271335;28;20083;-81
2022/07/28 12:31:54;;;;;;;4.97;0.90;;;;;;;;;;5275279;28;20485;-81
2022/07/28 12:34:26;;;;;;;3.95;0.80;;;;;;;;;;5261810;28;20032;-81
2022/07/28 12:37:03;;;;;;;2.38;1.10;;;;;;;;;;5282392;28;20515;-81
2022/07/28 12:39:37;;;;;;;3.88;1.00;;;;;;;;;;5269305;28;20373;-81
2022/07/28 12:42:10;;;;;;;2.43;0.87;;;;;;;;;;5283495;28;20199;-81
2022/07/28 12:44:42;;;;;;;3.22;0.90;;;;;;;;;;5282331;28;20032;-81
2022/07/28 12:47:16;;;;;;;3.17;0.90;;;;;;;;;;5301346;28;20032;-81
2022/07/28 12:50:05;;;;;;;3.70;1.05;;;;;;;;;;5302041;28;20107;-80
2022/07/28 12:52:37;;;;;;;5.05;0.80;;;;;;;;;;5267084;28;20040;-85
2022/07/28 12:55:21;;;;;;;5.80;1.27;;;;;;;;;;5279172;28;20029;-81
2022/07/28 12:57:53;;;;;;;2.25;0.80;;;;;;;;;;5282498;28;20078;-81
2022/07/28 13:00:30;;;;;;;4.03;1.00;;;;;;;;;;5279383;28;20489;-80
2022/07/28 13:03:18;;;;;;;4.00;1.05;;;;;;;;;;5277458;28;20033;-81
2022/07/28 13:06:02;;;;;;;6.25;1.25;;;;;;;;;;5278503;28;20032;-81
2022/07/28 13:08:44;;;;;;;5.30;1.02;;;;;;;;;;5260570;28;20021;-82
2022/07/28 13:11:15;;;;;;;3.25;1.00;;;;;;;;;;5274619;28;20095;-81
2022/07/28 13:13:50;;;;;;;1.92;0.70;;;;;;;;;;5263582;28;20029;-81
2022/07/28 13:16:21;;;;;;;;;;;;;;;;;;5261078;28;20061;-82
2022/07/28 13:18:54;;;;;;;4.78;0.90;;;;;;;;;;5276223;28;20006;-82
2022/07/28 13:21:41;;;;;;;7.40;1.10;;;;;;;;;;5261123;28;20452;-82
2022/07/28 13:24:17;;;;;;;2.72;1.08;;;;;;;;;;5262741;28;20041;-81
2022/07/28 13:26:48;;;;;;;6.38;1.13;;;;;;;;;;5278337;28;20037;-82
2022/07/28 13:29:21;;;;;;;1.53;0.67;;;;;;;;;;5278702;28;20033;-82
2022/07/28 13:31:53;;;;;;;4.07;1.13;;;;;;;;;;5277755;28;20033;-81
2022/07/28 13:34:24;;;;;;;3.50;0.77;;;;;;;;;;5277334;28;20072;-81
2022/07/28 13:36:55;;;;;;;2.30;0.80;;;;;;;;;;5278794;28;20055;-81
2022/07/28 13:39:27;;;;;;;4.82;1.08;;;;;;;;;;5276404;28;20033;-81
2022/07/28 13:41:58;;;;;;;6.80;1.03;;;;;;;;;;5278074;28;20076;-82
2022/07/28 13:44:30;;;;;;;3.55;0.80;;;;;;;;;;5277020;28;20268;-80
2022/07/28 13:47:02;;;;;;;5.60;1.05;;;;;;;;;;5277650;28;20083;-81
2022/07/28 13:49:36;;;;;;;6.15;1.08;;;;;;;;;;5259794;28;20065;-81
2022/07/28 13:52:08;;;;;;;5.32;0.90;;;;;;;;;;5278437;28;20429;-81
2022/07/28 13:54:39;;;;;;;3.75;0.93;;;;;;;;;;5276599;28;20040;-82
2022/07/28 13:57:12;;;;;;;2.63;0.90;;;;;;;;;;5277025;28;20422;-81
2022/07/28 13:59:43;;;;;;;2.88;0.80;;;;;;;;;;5268496;28;20124;-81
2022/07/28 14:02:14;;;;;;;5.73;0.80;;;;;;;;;;5281899;28;20420;-81
2022/07/28 14:04:45;;;;;;;3.20;0.93;;;;;;;;;;5282703;28;20401;-80
2022/07/28 14:07:17;;;;;;;4.47;0.80;;;;;;;;;;5282407;28;20307;-81
2022/07/28 14:09:49;;;;;;;2.72;0.90;;;;;;;;;;5279058;28;20460;-80
2022/07/28 14:12:20;;;;;;;4.53;1.17;;;;;;;;;;5280734;28;20025;-81
2022/07/28 14:14:51;;;;;;;4.63;0.80;;;;;;;;;;5263989;28;20032;-81
2022/07/28 14:17:23;;;;;;;4.47;1.07;;;;;;;;;;5278798;28;20564;-81
2022/07/28 14:19:54;;;;;;;4.82;0.85;;;;;;;;;;5281645;28;20268;-80
2022/07/28 14:22:25;;;;;;;3.37;1.03;;;;;;;;;;5280516;28;20499;-81
2022/07/28 14:24:56;;;;;;;2.70;0.93;;;;;;;;;;5279184;28;20045;-81
2022/07/28 14:27:28;;;;;;;3.80;1.10;;;;;;;;;;5263995;28;20029;-80
2022/07/28 14:29:59;;;;;;;4.30;1.05;;;;;;;;;;5282411;28;20040;-81
2022/07/28 14:32:31;;;;;;;5.57;1.10;;;;;;;;;;5280416;28;20873;-81
2022/07/28 14:35:02;;;;;;;5.93;1.05;;;;;;;;;;5281022;28;20163;-81
2022/07/28 14:37:33;;;;;;;4.35;1.00;;;;;;;;;;5280366;28;20032;-81
2022/07/28 14:40:05;;;;;;;4.45;1.20;;;;;;;;;;5277228;28;20119;-81
2022/07/28 14:42:36;;;;;;;4.93;1.20;;;;;;;;;;5279966;28;20108;-81
2022/07/28 14:45:07;;;;;;;1.93;0.90;;;;;;;;;;5279995;28;20021;-80
2022/07/28 14:47:39;;;;;;;2.53;0.80;;;;;;;;;;5277160;28;20035;-81
2022/07/28 14:50:10;;;;;;;2.55;0.90;;;;;;;;;;5279442;28;20037;-80
2022/07/28 14:52:41;;;;;;;3.90;1.20;;;;;;;;;;5279696;28;20079;-81
2022/07/28 14:55:12;;;;;;;4.17;1.00;;;;;;;;;;5262946;28;20024;-81
2022/07/28 14:57:44;;;;;;;5.57;0.90;;;;;;;;;;5265908;28;20037;-80
2022/07/28 15:00:15;;;;;;;4.05;1.30;;;;;;;;;;5265545;28;20236;-80
2022/07/28 15:02:46;;;;;;;5.88;0.90;;;;;;;;;;5264769;28;20060;-80
2022/07/28 15:05:18;;;;;;;4.67;1.17;;;;;;;;;;5283115;28;20055;-80
2022/07/28 15:07:50;;;;;;;3.58;0.90;;;;;;;;;;5282045;28;20365;-81
2022/07/28 15:10:22;;;;;;;3.67;0.95;;;;;;;;;;5280024;28;20560;-80
2022/07/28 15:12:53;;;;;;;2.38;1.30;;;;;;;;;;5282631;28;20112;-80
2022/07/28 15:15:25;;;;;;;2.53;1.00;;;;;;;;;;5272430;28;20048;-80
2022/07/28 15:17:57;;;;;;;4.13;1.23;;;;;;;;;;5280270;28;20244;-79
2022/07/28 15:20:30;;;;;;;6.05;1.40;;;;;;;;;;5283861;28;20124;-80
2022/07/28 15:23:01;;;;;;;4.10;1.05;;;;;;;;;;5278286;28;20033;-79
2022/07/28 15:25:32;;;;;;;6.55;1.30;;;;;;;;;;5284870;28;20152;-79
2022/07/28 15:28:03;;;;;;;2.97;0.90;;;;;;;;;;5296087;28;20033;-82
2022/07/28 15:30:35;;;;;;;5.00;1.30;;;;;;;;;;5264906;28;20029;-81
2022/07/28 15:33:06;;;;;;;5.33;1.27;;;;;;;;;;5263607;28;20403;-81
2022/07/28 15:35:39;;;;;;;4.23;1.20;;;;;;;;;;5278322;28;20037;-80
2022/07/28 15:38:10;;;;;;;2.78;0.98;;;;;;;;;;5277855;28;20029;-80
2022/07/28 15:40:42;;;;;;;3.63;1.10;;;;;;;;;;5277809;28;20033;-81